Time;durP1;ratioP1;P1;durP2;ratioP2;P2;SDS_P1;SDS_P2;PMS_P1;PMS_P2;Temp;Humidity;BMP_temperature;BMP_pressure;BME280_temperature;BME280_humidity;BME280_pressure;Samples;Min_cycle;Max_cycle;Signal;HPM_P1;HPM_P2
2021/12/23 00:01:19;;;;;;;;;;;-7.60;99.90;;;;;;5100149;28;19942;-76
2021/12/23 00:03:46;;;;;;;;;;;-7.60;99.90;;;;;;5093338;28;20366;-77
2021/12/23 00:06:12;;;;;;;;;;;-7.60;99.90;;;;;;5103308;28;19926;-77
2021/12/23 00:08:39;;;;;;;;;;;-7.70;99.90;;;;;;5092680;28;19919;-77
2021/12/23 00:11:06;;;;;;;;;;;-7.70;99.90;;;;;;5101483;28;19920;-77
2021/12/23 00:13:35;;;;;;;;;;;-7.60;99.90;;;;;;5111576;28;19920;-77
2021/12/23 00:16:04;;;;;;;;;;;-7.30;99.90;;;;;;5105093;28;20366;-77
2021/12/23 00:23:56;;;;;;;;;;;-6.90;99.90;;;;;;5097317;28;19927;-78
2021/12/23 00:26:23;;;;;;;;;;;-6.90;99.90;;;;;;5092686;28;19920;-78
2021/12/23 00:28:49;;;;;;;;;;;-6.90;99.90;;;;;;5094334;28;19938;-77
2021/12/23 00:31:16;;;;;;;;;;;-6.90;99.90;;;;;;5091989;28;19923;-78
2021/12/23 00:33:46;;;;;;;;;;;-6.90;99.90;;;;;;5096111;28;19969;-78
2021/12/23 00:36:14;;;;;;;;;;;-7.00;99.90;;;;;;5095443;28;19986;-77
2021/12/23 00:38:47;;;;;;;;;;;-7.00;99.90;;;;;;5101603;28;19920;-77
2021/12/23 00:41:14;;;;;;;;;;;-7.00;99.90;;;;;;5097383;28;19934;-78
2021/12/23 00:43:42;;;;;;;;;;;-6.90;99.90;;;;;;5102405;28;19920;-78
2021/12/23 00:46:08;;;;;;;;;;;-7.00;99.90;;;;;;5092353;28;19920;-78
2021/12/23 00:48:35;;;;;;;;;;;-7.00;99.90;;;;;;5091282;28;19920;-78
2021/12/23 00:51:06;;;;;;;;;;;-6.80;99.90;;;;;;5092119;28;19920;-78
2021/12/23 00:53:38;;;;;;;;;;;-6.80;99.90;;;;;;5098264;28;19926;-77
2021/12/23 00:56:05;;;;;;;;;;;-6.70;99.90;;;;;;5105890;28;19919;-77
2021/12/23 00:58:32;;;;;;;;;;;-6.70;99.90;;;;;;5105915;28;19945;-77
2021/12/23 01:01:00;;;;;;;;;;;-6.70;99.90;;;;;;5096791;28;19919;-76
2021/12/23 01:03:28;;;;;;;;;;;-6.60;99.90;;;;;;5095924;28;20018;-76
2021/12/23 01:05:55;;;;;;;;;;;-6.60;99.90;;;;;;5098135;28;20274;-76
2021/12/23 01:08:22;;;;;;;;;;;-6.60;99.90;;;;;;5096592;28;20381;-76
2021/12/23 01:10:51;;;;;;;;;;;-6.60;99.90;;;;;;5095931;28;19927;-75
2021/12/23 01:13:19;;;;;;;;;;;-6.60;99.90;;;;;;5112420;28;19924;-77
2021/12/23 01:16:01;;;;;;;;;;;-6.60;99.90;;;;;;5097358;28;20372;-76
2021/12/23 01:18:36;;;;;;;;;;;-6.60;99.90;;;;;;5099870;28;19931;-75
2021/12/23 01:21:14;;;;;;;;;;;-6.60;99.90;;;;;;5091755;28;19920;-75
2021/12/23 01:23:43;;;;;;;;;;;-6.60;99.90;;;;;;5099404;28;19926;-76
2021/12/23 01:26:10;;;;;;;;;;;-6.60;99.90;;;;;;5099928;28;19920;-77
2021/12/23 01:28:39;;;;;;;;;;;-6.60;99.90;;;;;;5102105;28;19930;-76
2021/12/23 01:31:06;;;;;;;;;;;-6.60;99.90;;;;;;5102568;27;19920;-75
2021/12/23 01:33:33;;;;;;;;;;;-6.60;99.90;;;;;;5103324;28;19927;-75
2021/12/23 01:35:59;;;;;;;;;;;-6.50;99.90;;;;;;5100910;28;19934;-75
2021/12/23 01:38:26;;;;;;;;;;;-6.50;99.90;;;;;;5093965;27;20424;-75
2021/12/23 01:40:53;;;;;;;;;;;-6.40;99.90;;;;;;5108797;28;19920;-76
2021/12/23 01:43:20;;;;;;;;;;;-6.30;99.90;;;;;;5089043;28;20395;-75
2021/12/23 01:45:48;;;;;;;;;;;-6.30;99.90;;;;;;5086412;28;20003;-74
2021/12/23 01:48:15;;;;;;;;;;;-6.30;99.90;;;;;;5105632;28;20369;-75
2021/12/23 01:50:42;;;;;;;;;;;-6.20;99.90;;;;;;5091965;28;20413;-75
2021/12/23 01:53:09;;;;;;;;;;;-6.10;99.90;;;;;;5102997;28;19920;-75
2021/12/23 01:55:36;;;;;;;;;;;-6.00;99.90;;;;;;5092792;28;19934;-74
2021/12/23 01:58:04;;;;;;;;;;;-6.00;99.90;;;;;;5106944;28;20274;-75
2021/12/23 02:00:33;;;;;;;;;;;-6.00;99.90;;;;;;5091921;28;19926;-75
2021/12/23 02:03:00;;;;;;;;;;;-6.00;99.90;;;;;;5091976;28;19920;-74
2021/12/23 02:05:28;;;;;;;;;;;-6.00;99.90;;;;;;5095542;28;20371;-74
2021/12/23 02:07:55;;;;;;;;;;;-6.00;99.90;;;;;;5102775;28;19969;-75
2021/12/23 02:10:22;;;;;;;;;;;-5.90;99.90;;;;;;5103800;28;19930;-75
2021/12/23 02:12:52;;;;;;;;;;;-5.90;99.90;;;;;;5100254;28;19920;-74
2021/12/23 02:15:19;;;;;;;;;;;-5.80;99.90;;;;;;5106462;28;20006;-75
2021/12/23 02:17:48;;;;;;;;;;;-5.70;99.90;;;;;;5093647;28;19929;-75
2021/12/23 02:20:20;;;;;;;;;;;-5.70;99.90;;;;;;5095277;28;19934;-75
2021/12/23 02:22:46;;;;;;;;;;;-5.70;99.90;;;;;;5096892;28;19928;-75
2021/12/23 02:25:13;;;;;;;;;;;-5.60;99.90;;;;;;5102166;28;20341;-75
2021/12/23 02:27:41;;;;;;;;;;;-5.60;99.90;;;;;;5106416;28;19955;-75
2021/12/23 02:30:14;;;;;;;;;;;-5.60;99.90;;;;;;5098046;28;20019;-75
2021/12/23 02:32:41;;;;;;;;;;;-5.60;99.90;;;;;;5105515;28;19919;-74
2021/12/23 02:35:09;;;;;;;;;;;-5.70;99.90;;;;;;5098069;28;19947;-74
2021/12/23 02:37:36;;;;;;;;;;;-5.70;99.90;;;;;;5098983;28;19920;-74
2021/12/23 02:40:03;;;;;;;;;;;-5.80;99.90;;;;;;5093848;28;19932;-75
2021/12/23 02:42:32;;;;;;;;;;;-5.80;99.90;;;;;;5106256;28;19932;-74
2021/12/23 02:44:58;;;;;;;;;;;-5.90;99.90;;;;;;5102145;28;19919;-74
2021/12/23 02:47:28;;;;;;;;;;;-6.00;99.90;;;;;;5095535;28;19920;-74
2021/12/23 02:49:54;;;;;;;;;;;-6.00;99.90;;;;;;5103208;28;19920;-74
2021/12/23 02:52:25;;;;;;;;;;;-6.00;99.90;;;;;;5104768;28;19919;-72
2021/12/23 02:54:58;;;;;;;;;;;-6.10;99.90;;;;;;5101796;28;19931;-74
2021/12/23 02:57:34;;;;;;;;;;;-6.10;99.90;;;;;;5100778;28;20245;-73
2021/12/23 03:00:01;;;;;;;;;;;-6.10;99.90;;;;;;5106113;28;19928;-73
2021/12/23 03:02:30;;;;;;;;;;;-6.10;99.90;;;;;;5096721;28;19935;-73
2021/12/23 03:04:57;;;;;;;;;;;-6.00;99.90;;;;;;5103358;28;19919;-73
2021/12/23 03:07:23;;;;;;;;;;;-6.00;99.90;;;;;;5102228;28;19919;-73
2021/12/23 03:09:50;;;;;;;;;;;-6.00;99.90;;;;;;5094760;27;19927;-73
2021/12/23 03:12:17;;;;;;;;;;;-6.00;99.90;;;;;;5092863;28;19920;-73
2021/12/23 03:14:43;;;;;;;;;;;-6.10;99.90;;;;;;5092936;28;19924;-73
2021/12/23 03:17:10;;;;;;;;;;;-6.10;99.90;;;;;;5102386;28;20374;-74
2021/12/23 03:19:37;;;;;;;;;;;-6.20;99.90;;;;;;5103587;28;19920;-73
2021/12/23 03:22:04;;;;;;;;;;;-6.20;99.90;;;;;;5095951;28;19927;-73
2021/12/23 03:24:30;;;;;;;;;;;-6.20;99.90;;;;;;5106631;28;19920;-74
2021/12/23 03:26:57;;;;;;;;;;;-6.10;99.90;;;;;;5091667;28;20433;-73
2021/12/23 03:29:26;;;;;;;;;;;-6.10;99.90;;;;;;5101494;28;19920;-73
2021/12/23 03:31:53;;;;;;;;;;;-6.10;99.90;;;;;;5097007;27;19920;-73
2021/12/23 03:34:22;;;;;;;;;;;-6.20;99.90;;;;;;5107628;27;19923;-73
2021/12/23 03:36:48;;;;;;;;;;;-6.30;99.90;;;;;;5095771;28;19924;-73
2021/12/23 03:39:15;;;;;;;;;;;-6.30;99.90;;;;;;5092207;28;19963;-73
2021/12/23 03:41:42;;;;;;;;;;;-6.30;99.90;;;;;;5094353;28;20019;-73
2021/12/23 03:44:11;;;;;;;;;;;-6.40;99.90;;;;;;5104131;28;19923;-73
2021/12/23 03:46:38;;;;;;;;;;;-6.40;99.90;;;;;;5095301;27;19999;-73
2021/12/23 03:49:06;;;;;;;;;;;-6.40;99.90;;;;;;5108306;27;19952;-73
2021/12/23 03:51:33;;;;;;;;;;;-6.50;99.90;;;;;;5105418;27;19953;-73
2021/12/23 03:54:03;;;;;;;;;;;-6.60;99.90;;;;;;5093404;28;19927;-73
2021/12/23 03:56:30;;;;;;;;;;;-6.60;99.90;;;;;;5100376;28;19920;-73
2021/12/23 03:58:56;;;;;;;;;;;-6.60;99.90;;;;;;5108968;28;20313;-73
2021/12/23 04:01:24;;;;;;;;;;;-6.60;99.90;;;;;;5104623;28;19945;-74
2021/12/23 04:03:51;;;;;;;;;;;-6.50;99.90;;;;;;5098362;28;19920;-75
2021/12/23 04:06:19;;;;;;;;;;;-6.50;99.90;;;;;;5095047;28;19927;-74
2021/12/23 04:08:46;;;;;;;;;;;-6.40;99.90;;;;;;5113139;27;20485;-74
2021/12/23 04:11:13;;;;;;;;;;;-6.20;99.90;;;;;;5107898;28;20273;-74
2021/12/23 04:13:42;;;;;;;;;;;-6.10;99.90;;;;;;5098439;28;20310;-74
2021/12/23 04:16:09;;;;;;;;;;;-6.10;99.90;;;;;;5108717;28;19924;-74
2021/12/23 04:18:35;;;;;;;;;;;-6.00;99.90;;;;;;5106458;28;20389;-74
2021/12/23 04:21:02;;;;;;;;;;;-6.00;99.90;;;;;;5096286;28;19942;-74
2021/12/23 04:23:30;;;;;;;;;;;-6.00;99.90;;;;;;5105061;28;19924;-74
2021/12/23 04:25:57;;;;;;;;;;;-6.10;99.90;;;;;;5093131;28;19927;-74
2021/12/23 04:28:25;;;;;;;;;;;-6.00;99.90;;;;;;5103936;28;20576;-74
2021/12/23 04:30:52;;;;;;;;;;;-6.10;99.90;;;;;;5092594;28;19920;-74
2021/12/23 04:33:19;;;;;;;;;;;-6.10;99.90;;;;;;5096815;28;19927;-74
2021/12/23 04:35:46;;;;;;;;;;;-6.10;99.90;;;;;;5092654;28;19927;-76
2021/12/23 04:38:12;;;;;;;;;;;-6.00;99.90;;;;;;5099966;28;19919;-74
2021/12/23 04:40:39;;;;;;;;;;;-6.00;99.90;;;;;;5095302;28;19924;-74
2021/12/23 04:43:06;;;;;;;;;;;-6.00;99.90;;;;;;5094659;28;19943;-75
2021/12/23 04:45:33;;;;;;;;;;;-6.10;99.90;;;;;;5102910;28;19974;-74
2021/12/23 04:48:00;;;;;;;;;;;-6.00;99.90;;;;;;5102165;28;19967;-74
2021/12/23 04:50:26;;;;;;;;;;;-6.00;99.90;;;;;;5102287;28;19926;-73
2021/12/23 04:52:53;;;;;;;;;;;-6.00;99.90;;;;;;5111093;28;20305;-74
2021/12/23 04:55:20;;;;;;;;;;;-6.00;99.90;;;;;;5102644;28;19954;-75
2021/12/23 04:57:46;;;;;;;;;;;-6.00;99.90;;;;;;5093474;28;19935;-75
2021/12/23 05:00:15;;;;;;;;;;;-5.90;99.90;;;;;;5107017;28;19920;-74
2021/12/23 05:02:42;;;;;;;;;;;-5.90;99.90;;;;;;5098131;28;19920;-75
2021/12/23 05:05:09;;;;;;;;;;;-5.90;99.90;;;;;;5102381;28;19924;-74
2021/12/23 05:07:39;;;;;;;;;;;-5.90;99.90;;;;;;5098842;28;19977;-74
2021/12/23 05:10:07;;;;;;;;;;;-5.90;99.90;;;;;;5110319;28;19919;-74
2021/12/23 05:12:46;;;;;;;;;;;-6.00;99.90;;;;;;5103003;28;19919;-73
2021/12/23 05:15:14;;;;;;;;;;;-6.00;99.90;;;;;;5092108;28;19919;-74
2021/12/23 05:17:41;;;;;;;;;;;-6.10;99.90;;;;;;5104835;28;19926;-73
2021/12/23 05:20:09;;;;;;;;;;;-6.10;99.90;;;;;;5093261;28;19927;-74
2021/12/23 05:22:35;;;;;;;;;;;-6.10;99.90;;;;;;5096685;28;19920;-73
2021/12/23 05:25:03;;;;;;;;;;;-6.10;99.90;;;;;;5099024;28;20274;-74
2021/12/23 05:27:29;;;;;;;;;;;-6.20;99.90;;;;;;5103208;28;19923;-74
2021/12/23 05:29:56;;;;;;;;;;;-6.20;99.90;;;;;;5098622;28;19919;-73
2021/12/23 05:32:23;;;;;;;;;;;-6.20;99.90;;;;;;5090339;28;20374;-74
2021/12/23 05:34:50;;;;;;;;;;;-6.20;99.90;;;;;;5089370;28;20304;-74
2021/12/23 05:37:16;;;;;;;;;;;-6.20;99.90;;;;;;5094479;28;19920;-74
2021/12/23 05:39:43;;;;;;;;;;;-6.20;99.90;;;;;;5092066;28;19920;-73
2021/12/23 05:42:10;;;;;;;;;;;-6.20;99.90;;;;;;5095442;28;19920;-73
2021/12/23 05:44:36;;;;;;;;;;;-6.20;99.90;;;;;;5098346;27;19920;-74
2021/12/23 05:47:03;;;;;;;;;;;-6.10;99.90;;;;;;5121447;27;19927;-75
2021/12/23 05:49:36;;;;;;;;;;;-6.10;99.90;;;;;;5114704;27;19966;-73
2021/12/23 05:52:03;;;;;;;;;;;-6.00;99.90;;;;;;5100075;27;20451;-74
2021/12/23 05:54:30;;;;;;;;;;;-6.00;99.90;;;;;;5097078;28;19934;-74
2021/12/23 05:57:01;;;;;;;;;;;-5.90;99.90;;;;;;5108808;28;19926;-74
2021/12/23 05:59:29;;;;;;;;;;;-5.90;99.90;;;;;;5112163;28;19946;-74
2021/12/23 06:01:55;;;;;;;;;;;-5.90;99.90;;;;;;5111207;28;19920;-74
2021/12/23 06:04:22;;;;;;;;;;;-6.00;99.90;;;;;;5106213;28;19965;-73
2021/12/23 06:06:49;;;;;;;;;;;-6.00;99.90;;;;;;5109735;28;19931;-73
2021/12/23 06:09:16;;;;;;;;;;;-6.00;99.90;;;;;;5096390;28;19927;-74
2021/12/23 06:11:42;;;;;;;;;;;-6.00;99.90;;;;;;5102651;28;20380;-74
2021/12/23 06:14:09;;;;;;;;;;;-6.00;99.90;;;;;;5102058;28;19935;-73
2021/12/23 06:16:36;;;;;;;;;;;-6.00;99.90;;;;;;5100010;28;19919;-73
2021/12/23 06:19:02;;;;;;;;;;;-6.10;99.90;;;;;;5096385;28;20531;-73
2021/12/23 06:21:31;;;;;;;;;;;-6.00;99.90;;;;;;5099713;28;19959;-73
2021/12/23 06:23:58;;;;;;;;;;;-6.00;99.90;;;;;;5107610;28;19923;-73
2021/12/23 06:26:25;;;;;;;;;;;-6.00;99.90;;;;;;5106013;28;19926;-73
2021/12/23 06:28:52;;;;;;;;;;;-6.00;99.90;;;;;;5101186;28;20338;-73
2021/12/23 06:31:19;;;;;;;;;;;-6.00;99.90;;;;;;5095853;28;20320;-73
2021/12/23 06:33:45;;;;;;;;;;;-5.90;99.90;;;;;;5103526;28;19969;-73
2021/12/23 06:36:13;;;;;;;;;;;-5.80;99.90;;;;;;5113936;28;20007;-74
2021/12/23 06:38:41;;;;;;;;;;;-5.70;99.90;;;;;;5096413;27;20439;-73
2021/12/23 06:41:08;;;;;;;;;;;-5.70;99.90;;;;;;5101938;27;20002;-73
2021/12/23 06:43:35;;;;;;;;;;;-5.60;99.90;;;;;;5103261;27;19919;-73
2021/12/23 06:46:02;;;;;;;;;;;-5.50;99.90;;;;;;5098695;28;20006;-73
2021/12/23 06:48:32;;;;;;;;;;;-5.50;99.90;;;;;;5095879;28;19966;-73
2021/12/23 06:51:00;;;;;;;;;;;-5.50;99.90;;;;;;5089743;28;20453;-73
2021/12/23 06:53:27;;;;;;;;;;;-5.40;99.90;;;;;;5095475;28;19924;-73
2021/12/23 06:55:55;;;;;;;;;;;-5.30;99.90;;;;;;5087647;28;20533;-73
2021/12/23 06:58:23;;;;;;;;;;;-5.30;99.90;;;;;;5099760;28;19973;-73
2021/12/23 07:00:51;;;;;;;;;;;-5.40;99.90;;;;;;5099800;28;20014;-73
2021/12/23 07:03:19;;;;;;;;;;;-5.40;99.90;;;;;;5098635;28;20021;-74
2021/12/23 07:05:46;;;;;;;;;;;-5.50;99.90;;;;;;5096473;28;19919;-73
2021/12/23 07:08:27;;;;;;;;;;;-5.60;99.90;;;;;;5100326;28;20381;-73
2021/12/23 07:10:54;;;;;;;;;;;-5.60;99.90;;;;;;5099439;28;19920;-73
2021/12/23 07:13:21;;;;;;;;;;;-5.60;99.90;;;;;;5109050;28;20002;-73
2021/12/23 07:15:50;;;;;;;;;;;-5.60;99.90;;;;;;5104507;27;19920;-73
2021/12/23 07:18:17;;;;;;;;;;;-5.70;99.90;;;;;;5096283;27;20484;-73
2021/12/23 07:20:43;;;;;;;;;;;-5.70;99.90;;;;;;5104844;28;19930;-64
2021/12/23 07:23:15;;;;;;;;;;;-5.70;99.90;;;;;;5101333;28;20006;-74
2021/12/23 07:25:41;;;;;;;;;;;-5.70;99.90;;;;;;5095438;27;19934;-75
2021/12/23 07:28:09;;;;;;;;;;;-5.60;99.90;;;;;;5101019;28;20378;-74
2021/12/23 07:30:36;;;;;;;;;;;-5.70;99.90;;;;;;5099985;28;19919;-75
2021/12/23 07:33:03;;;;;;;;;;;-5.70;99.90;;;;;;5093462;27;19927;-74
2021/12/23 07:35:30;;;;;;;;;;;-5.70;99.90;;;;;;5094089;27;19932;-74
2021/12/23 07:38:01;;;;;;;;;;;-5.70;99.90;;;;;;5092638;28;19919;-73
2021/12/23 07:40:30;;;;;;;;;;;-5.60;99.90;;;;;;5094581;28;19927;-73
2021/12/23 07:43:31;;;;;;;;;;;-5.60;99.90;;;;;;5098300;28;19919;-74
2021/12/23 07:45:58;;;;;;;;;;;-5.40;99.90;;;;;;5094061;28;19920;-74
2021/12/23 07:48:27;;;;;;;;;;;-5.30;99.90;;;;;;5099873;28;20336;-74
2021/12/23 07:50:54;;;;;;;;;;;-5.10;99.90;;;;;;5097441;28;19942;-74
2021/12/23 07:53:21;;;;;;;;;;;-5.00;99.90;;;;;;5100522;27;19952;-74
2021/12/23 07:55:48;;;;;;;;;;;-4.90;99.90;;;;;;5094465;28;19926;-73
2021/12/23 07:58:15;;;;;;;;;;;-4.80;99.90;;;;;;5098087;28;19919;-74
2021/12/23 08:00:42;;;;;;;;;;;-4.70;99.90;;;;;;5104971;28;20006;-74
2021/12/23 08:03:08;;;;;;;;;;;-4.60;99.90;;;;;;5094626;27;19927;-74
2021/12/23 08:05:35;;;;;;;;;;;-4.40;99.90;;;;;;5094934;27;19942;-73
2021/12/23 08:08:06;;;;;;;;;;;-4.40;99.90;;;;;;5105436;27;20293;-74
2021/12/23 08:10:32;;;;;;;;;;;-4.30;99.90;;;;;;5106531;28;19935;-73
2021/12/23 08:13:01;;;;;;;;;;;-4.20;99.90;;;;;;5099330;28;19999;-74
2021/12/23 08:15:28;;;;;;;;;;;-4.20;99.90;;;;;;5093794;27;20900;-75
2021/12/23 08:17:54;;;;;;;;;;;-4.10;99.90;;;;;;5093272;28;20262;-75
2021/12/23 08:20:23;;;;;;;;;;;-4.00;99.90;;;;;;5101943;28;20027;-75
2021/12/23 08:22:50;;;;;;;;;;;-4.00;99.90;;;;;;5107283;28;19919;-75
2021/12/23 08:25:17;;;;;;;;;;;-3.90;99.90;;;;;;5096519;28;19920;-75
2021/12/23 08:27:51;;;;;;;;;;;-3.80;99.90;;;;;;5106162;27;19966;-76
2021/12/23 08:30:19;;;;;;;;;;;-3.70;99.90;;;;;;5094548;27;20289;-75
2021/12/23 08:32:48;;;;;;;;;;;-3.60;99.90;;;;;;5097268;28;20292;-75
2021/12/23 08:35:15;;;;;;;;;;;-3.60;99.90;;;;;;5094936;28;20655;-78
2021/12/23 08:37:45;;;;;;;;;;;-3.50;99.90;;;;;;5112114;27;19924;-81
2021/12/23 08:40:14;;;;;;;;;;;-3.40;99.90;;;;;;5100546;28;20003;-80
2021/12/23 08:42:40;;;;;;;;;;;-3.40;99.90;;;;;;5104528;28;19924;-80
2021/12/23 08:45:07;;;;;;;;;;;-3.40;99.90;;;;;;5104049;28;19931;-81
2021/12/23 08:47:36;;;;;;;;;;;-3.30;99.90;;;;;;5092685;28;20026;-80
2021/12/23 08:50:05;;;;;;;;;;;-3.30;99.90;;;;;;5097618;28;19924;-80
2021/12/23 08:52:31;;;;;;;;;;;-3.30;99.90;;;;;;5098521;28;19928;-80
2021/12/23 08:54:58;;;;;;;;;;;-3.30;99.90;;;;;;5103301;28;19927;-80
2021/12/23 08:57:25;;;;;;;;;;;-3.20;99.90;;;;;;5110591;28;19924;-79
2021/12/23 08:59:51;;;;;;;;;;;-3.20;99.90;;;;;;5101297;28;19925;-80
2021/12/23 09:02:21;;;;;;;;;;;-3.10;99.90;;;;;;5093944;28;19924;-80
2021/12/23 09:04:48;;;;;;;;;;;-3.10;99.90;;;;;;5102380;28;19947;-80
2021/12/23 09:07:15;;;;;;;;;;;-3.10;99.90;;;;;;5104483;28;19982;-80
2021/12/23 09:09:46;;;;;;;;;;;-3.00;99.90;;;;;;5101391;28;19928;-80
2021/12/23 09:12:15;;;;;;;;;;;-3.00;99.90;;;;;;5110859;27;20018;-80
2021/12/23 09:14:42;;;;;;;;;;;-2.90;99.90;;;;;;5094903;28;19975;-81
2021/12/23 09:17:11;;;;;;;;;;;-2.90;99.90;;;;;;5103292;28;19924;-80
2021/12/23 09:19:41;;;;;;;;;;;-2.90;99.90;;;;;;5115234;28;19924;-80
2021/12/23 09:22:11;;;;;;;;;;;-2.80;99.90;;;;;;5100655;28;19924;-80
2021/12/23 09:24:41;;;;;;;;;;;-2.80;99.90;;;;;;5097122;28;19925;-80
2021/12/23 09:35:02;;;;;;;;;;;-2.60;99.90;;;;;;5095582;28;20019;-80
2021/12/23 09:37:29;;;;;;;;;;;-2.50;99.90;;;;;;5095591;28;19924;-80
2021/12/23 09:39:59;;;;;;;;;;;-2.50;99.90;;;;;;5096405;28;19932;-80
2021/12/23 09:42:26;;;;;;;;;;;-2.50;99.90;;;;;;5098034;28;19937;-80
2021/12/23 09:44:59;;;;;;;;;;;-2.40;99.90;;;;;;5103261;28;19924;-79
2021/12/23 09:47:27;;;;;;;;;;;-2.30;99.90;;;;;;5095345;28;20441;-79
2021/12/23 09:49:54;;;;;;;;;;;-2.30;99.90;;;;;;5115278;27;19974;-80
2021/12/23 09:52:22;;;;;;;;;;;-2.20;99.90;;;;;;5106542;28;19931;-81
2021/12/23 09:54:52;;;;;;;;;;;-2.10;99.90;;;;;;5097465;28;19924;-81
2021/12/23 09:57:19;;;;;;;;;;;-2.00;99.90;;;;;;5105827;28;19930;-80
2021/12/23 09:59:49;;;;;;;;;;;-1.90;99.90;;;;;;5106134;28;19924;-80
2021/12/23 10:02:15;;;;;;;;;;;-1.90;99.90;;;;;;5104257;27;19938;-80
2021/12/23 10:04:44;;;;;;;;;;;-2.00;99.90;;;;;;5105872;28;19924;-80
2021/12/23 10:07:12;;;;;;;;;;;-1.90;99.90;;;;;;5097359;27;19938;-80
2021/12/23 10:10:08;;;;;;;;;;;-1.90;99.90;;;;;;5107118;28;20281;-80
2021/12/23 10:30:26;;;;;;;;;;;-1.70;99.90;;;;;;5094111;28;19936;-83
2021/12/23 10:33:07;;;;;;;;;;;-1.70;99.90;;;;;;5105114;28;19958;-83
2021/12/23 10:38:40;;;;;;;;;;;-1.70;99.90;;;;;;5110504;28;19931;-81
2021/12/23 10:41:12;;;;;;;;;;;-1.40;99.90;;;;;;5097063;28;19924;-80
2021/12/23 10:43:47;;;;;;;;;;;-1.20;99.90;;;;;;5106001;28;20022;-80
2021/12/23 10:46:20;;;;;;;;;;;-1.10;99.90;;;;;;5105637;28;19928;-80
2021/12/23 10:48:56;;;;;;;;;;;-1.00;99.90;;;;;;5098436;27;20435;-80
2021/12/23 10:51:22;;;;;;;;;;;-0.90;99.90;;;;;;5107355;27;19924;-80
2021/12/23 10:59:10;;;;;;;;;;;-0.60;99.90;;;;;;5098953;28;19932;-80
2021/12/23 11:01:57;;;;;;;;;;;-0.60;99.90;;;;;;5112116;28;19924;-80
2021/12/23 11:04:42;;;;;;;;;;;-0.50;99.90;;;;;;5097897;28;19924;-79
2021/12/23 11:07:26;;;;;;;;;;;-0.40;99.90;;;;;;5093913;28;19950;-80
2021/12/23 11:11:00;;;;;;;;;;;-0.30;99.90;;;;;;5105152;28;20022;-79
2021/12/23 11:37:40;;;;;;;;;;;-0.20;99.90;;;;;;5095513;28;20018;-78
2021/12/23 11:40:25;;;;;;;;;;;-0.20;99.90;;;;;;5098530;27;19946;-78
2021/12/23 11:45:27;;;;;;;;;;;-0.40;99.90;;;;;;5093842;28;19928;-78
2021/12/23 11:47:57;;;;;;;;;;;-0.40;99.90;;;;;;5095405;28;19924;-77
2021/12/23 11:50:32;;;;;;;;;;;-0.30;99.90;;;;;;5094126;28;19928;-77
2021/12/23 11:53:00;;;;;;;;;;;-0.20;99.90;;;;;;5095252;28;19923;-77
2021/12/23 11:55:27;;;;;;;;;;;-0.10;99.90;;;;;;5095311;28;20019;-77
2021/12/23 11:57:54;;;;;;;;;;;0.00;99.90;;;;;;5105400;28;20297;-77
2021/12/23 12:00:32;;;;;;;;;;;0.10;99.90;;;;;;5098079;28;19930;-77
2021/12/23 12:03:00;;;;;;;;;;;0.30;99.90;;;;;;5093748;28;20283;-77
2021/12/23 12:05:27;;;;;;;;;;;0.30;99.90;;;;;;5096162;27;19924;-76
2021/12/23 12:08:14;;;;;;;;;;;0.30;99.90;;;;;;5103401;28;19931;-77
2021/12/23 12:10:42;;;;;;;;;;;0.30;99.90;;;;;;5095377;28;19953;-76
2021/12/23 12:13:10;;;;;;;;;;;0.30;99.90;;;;;;5101794;28;19928;-76
2021/12/23 12:15:41;;;;;;;;;;;0.30;99.90;;;;;;5100180;28;19928;-76
2021/12/23 12:18:09;;;;;;;;;;;0.30;99.90;;;;;;5100613;28;19924;-77
2021/12/23 12:20:43;;;;;;;;;;;0.40;99.90;;;;;;5100599;28;20003;-77
2021/12/23 12:23:11;;;;;;;;;;;0.30;99.90;;;;;;5106110;27;19946;-76
2021/12/23 12:25:38;;;;;;;;;;;0.40;99.90;;;;;;5099230;28;19928;-77
2021/12/23 12:28:05;;;;;;;;;;;0.50;99.90;;;;;;5099458;28;19930;-77
2021/12/23 12:30:36;;;;;;;;;;;0.70;99.90;;;;;;5095461;27;19928;-77
2021/12/23 12:33:23;;;;;;;;;;;0.80;99.90;;;;;;5092205;28;19927;-76
2021/12/23 12:35:51;;;;;;;;;;;1.00;99.90;;;;;;5097910;28;19934;-76
2021/12/23 12:38:19;;;;;;;;;;;1.10;99.90;;;;;;5101024;28;19930;-75
2021/12/23 12:40:59;;;;;;;;;;;1.20;99.90;;;;;;5103645;28;19930;-76
2021/12/23 12:43:48;;;;;;;;;;;1.40;99.90;;;;;;5093466;28;19924;-75
2021/12/23 12:46:57;;;;;;;;;;;1.40;99.90;;;;;;5095393;28;20031;-76
2021/12/23 12:49:29;;;;;;;;;;;1.40;99.90;;;;;;5097336;28;19928;-76
2021/12/23 12:52:10;;;;;;;;;;;1.30;99.90;;;;;;5096594;28;20305;-75
2021/12/23 12:54:42;;;;;;;;;;;1.30;99.90;;;;;;5092622;28;20039;-75
2021/12/23 12:57:10;;;;;;;;;;;1.40;99.90;;;;;;5096134;28;20440;-75
2021/12/23 12:59:41;;;;;;;;;;;1.50;99.90;;;;;;5094880;28;19939;-76
2021/12/23 13:02:23;;;;;;;;;;;1.60;99.90;;;;;;5098667;28;19928;-76
2021/12/23 13:04:57;;;;;;;;;;;1.50;99.90;;;;;;5094914;28;19924;-75
2021/12/23 13:07:35;;;;;;;;;;;1.40;99.90;;;;;;5094126;28;19968;-75
2021/12/23 13:10:10;;;;;;;;;;;1.40;99.90;;;;;;5095345;28;20022;-76
2021/12/23 13:12:46;;;;;;;;;;;1.40;99.90;;;;;;5095292;28;19924;-75
2021/12/23 13:15:19;;;;;;;;;;;1.50;99.90;;;;;;5093295;28;19924;-75
2021/12/23 13:17:48;;;;;;;;;;;1.50;99.90;;;;;;5091640;28;19924;-75
2021/12/23 13:20:16;;;;;;;;;;;1.50;99.90;;;;;;5100107;28;19923;-75
2021/12/23 13:22:46;;;;;;;;;;;1.50;99.90;;;;;;5095777;28;19924;-75
2021/12/23 13:25:12;;;;;;;;;;;1.50;99.90;;;;;;5092192;28;19935;-76
2021/12/23 13:27:41;;;;;;;;;;;1.40;99.90;;;;;;5088864;28;19963;-75
2021/12/23 13:30:11;;;;;;;;;;;1.30;99.90;;;;;;5094252;28;20018;-76
2021/12/23 13:32:38;;;;;;;;;;;1.10;99.90;;;;;;5097086;28;19927;-76
2021/12/23 13:35:12;;;;;;;;;;;1.20;99.90;;;;;;5092733;28;19924;-76
2021/12/23 13:37:43;;;;;;;;;;;1.20;99.90;;;;;;5087844;28;20023;-75
2021/12/23 13:40:10;;;;;;;;;;;1.30;99.90;;;;;;5101389;28;20042;-76
2021/12/23 13:42:43;;;;;;;;;;;1.40;99.90;;;;;;5100582;28;19924;-76
2021/12/23 13:45:10;;;;;;;;;;;1.40;99.90;;;;;;5097095;28;19932;-76
2021/12/23 13:47:36;;;;;;;;;;;1.50;99.90;;;;;;5106540;28;19962;-76
2021/12/23 13:50:04;;;;;;;;;;;1.50;99.90;;;;;;5096519;28;20775;-77
2021/12/23 13:52:34;;;;;;;;;;;1.50;99.90;;;;;;5088008;28;19960;-76
2021/12/23 13:55:08;;;;;;;;;;;1.50;99.90;;;;;;5088744;28;19936;-76
2021/12/23 13:57:41;;;;;;;;;;;1.30;99.90;;;;;;5084551;28;19932;-76
2021/12/23 14:00:15;;;;;;;;;;;1.30;99.90;;;;;;5090913;28;19928;-76
2021/12/23 14:02:42;;;;;;;;;;;1.20;99.90;;;;;;5093147;28;19935;-76
2021/12/23 14:05:10;;;;;;;;;;;1.20;99.90;;;;;;5100249;28;19931;-76
2021/12/23 14:07:41;;;;;;;;;;;1.10;99.90;;;;;;5101345;28;20006;-77
2021/12/23 14:10:21;;;;;;;;;;;1.00;99.90;;;;;;5094564;28;20010;-76
2021/12/23 14:12:52;;;;;;;;;;;1.00;99.90;;;;;;5098423;27;19920;-76
2021/12/23 14:15:21;;;;;;;;;;;1.00;99.90;;;;;;5101747;28;19927;-76
2021/12/23 14:17:53;;;;;;;;;;;1.00;99.90;;;;;;5102310;27;20023;-76
2021/12/23 14:23:15;;;;;;;;;;;1.00;99.90;;;;;;5098619;28;19924;-75
2021/12/23 14:25:46;;;;;;;;;;;1.00;99.90;;;;;;5108603;28;19919;-75
2021/12/23 14:28:14;;;;;;;;;;;1.00;99.90;;;;;;5110092;27;19946;-75
2021/12/23 14:30:52;;;;;;;;;;;1.00;99.90;;;;;;5102483;28;20011;-76
2021/12/23 14:33:21;;;;;;;;;;;0.90;99.90;;;;;;5093275;28;20009;-76
2021/12/23 14:36:07;;;;;;;;;;;0.90;99.90;;;;;;5099335;28;20321;-76
2021/12/23 14:38:38;;;;;;;;;;;0.90;99.90;;;;;;5090801;28;19920;-75
2021/12/23 14:41:10;;;;;;;;;;;0.90;99.90;;;;;;5103195;27;20037;-76
2021/12/23 14:43:53;;;;;;;;;;;1.00;99.90;;;;;;5097887;27;19928;-76
2021/12/23 14:46:21;;;;;;;;;;;1.00;99.90;;;;;;5098088;28;19942;-76
2021/12/23 14:51:33;;;;;;;;;;;1.10;99.90;;;;;;5098180;28;19920;-68
2021/12/23 14:54:22;;;;;;;;;;;1.10;99.90;;;;;;5102669;27;19973;-70
2021/12/23 14:56:50;;;;;;;;;;;1.10;99.90;;;;;;5090000;28;19920;-70
2021/12/23 14:59:21;;;;;;;;;;;1.10;99.90;;;;;;5096848;28;20354;-70
2021/12/23 15:01:49;;;;;;;;;;;1.00;99.90;;;;;;5090622;28;19920;-70
2021/12/23 15:04:17;;;;;;;;;;;1.00;99.90;;;;;;5101062;28;19920;-70
2021/12/23 15:07:02;;;;;;;;;;;1.00;99.90;;;;;;5105538;27;19930;-70
2021/12/23 15:09:30;;;;;;;;;;;1.00;99.90;;;;;;5100884;28;20009;-70
2021/12/23 15:12:13;;;;;;;;;;;1.00;99.90;;;;;;5095124;28;19928;-70
2021/12/23 15:14:45;;;;;;;;;;;1.00;99.90;;;;;;5098678;28;19924;-70
2021/12/23 15:17:19;;;;;;;;;;;1.00;99.90;;;;;;5097831;28;19924;-70
2021/12/23 15:19:50;;;;;;;;;;;1.00;99.90;;;;;;5102234;28;20026;-70
2021/12/23 15:22:19;;;;;;;;;;;1.10;99.90;;;;;;5095820;28;19927;-70
2021/12/23 15:24:46;;;;;;;;;;;1.10;99.90;;;;;;5096230;28;19943;-70
2021/12/23 15:27:20;;;;;;;;;;;1.10;99.90;;;;;;5101642;27;20005;-70
2021/12/23 15:29:48;;;;;;;;;;;1.10;99.90;;;;;;5093159;28;20006;-70
2021/12/23 15:32:21;;;;;;;;;;;1.00;99.90;;;;;;5093149;28;20430;-70
2021/12/23 15:34:57;;;;;;;;;;;1.00;99.90;;;;;;5099505;28;19928;-71
2021/12/23 15:37:24;;;;;;;;;;;1.10;99.90;;;;;;5093223;28;20382;-70
2021/12/23 15:39:52;;;;;;;;;;;1.00;99.90;;;;;;5086718;28;19935;-70
2021/12/23 15:42:19;;;;;;;;;;;1.10;99.90;;;;;;5096618;28;20308;-70
2021/12/23 15:44:48;;;;;;;;;;;1.10;99.90;;;;;;5095597;28;20029;-70
2021/12/23 15:47:16;;;;;;;;;;;1.20;99.90;;;;;;5099298;28;20262;-70